sensor_id;sensor_type;location;lat;lon;timestamp;P1;durP1;ratioP1;P2;durP2;ratioP2
78312;SDS011;67568;47.438;21.408;2023-05-07T00:02:03;13.68;;;8.80;;
78312;SDS011;67568;47.438;21.408;2023-05-07T00:04:35;14.93;;;9.13;;
78312;SDS011;67568;47.438;21.408;2023-05-07T00:07:02;13.07;;;8.60;;
78312;SDS011;67568;47.438;21.408;2023-05-07T00:09:29;14.50;;;9.23;;
78312;SDS011;67568;47.438;21.408;2023-05-07T00:11:59;14.77;;;9.60;;
78312;SDS011;67568;47.438;21.408;2023-05-07T00:14:29;13.55;;;9.30;;
78312;SDS011;67568;47.438;21.408;2023-05-07T00:16:55;13.95;;;8.95;;
78312;SDS011;67568;47.438;21.408;2023-05-07T00:19:22;15.20;;;8.77;;
78312;SDS011;67568;47.438;21.408;2023-05-07T00:21:52;15.57;;;9.25;;
78312;SDS011;67568;47.438;21.408;2023-05-07T00:24:19;13.93;;;8.80;;
78312;SDS011;67568;47.438;21.408;2023-05-07T00:26:49;13.05;;;8.85;;
78312;SDS011;67568;47.438;21.408;2023-05-07T00:29:18;15.00;;;8.90;;
78312;SDS011;67568;47.438;21.408;2023-05-07T00:31:44;13.07;;;8.97;;
78312;SDS011;67568;47.438;21.408;2023-05-07T00:34:12;15.32;;;9.90;;
78312;SDS011;67568;47.438;21.408;2023-05-07T00:36:39;13.93;;;9.35;;
78312;SDS011;67568;47.438;21.408;2023-05-07T00:39:09;13.80;;;9.25;;
78312;SDS011;67568;47.438;21.408;2023-05-07T00:41:37;16.23;;;8.88;;
78312;SDS011;67568;47.438;21.408;2023-05-07T00:44:04;14.03;;;8.60;;
78312;SDS011;67568;47.438;21.408;2023-05-07T00:46:31;13.68;;;8.50;;
78312;SDS011;67568;47.438;21.408;2023-05-07T00:48:59;12.85;;;8.52;;
78312;SDS011;67568;47.438;21.408;2023-05-07T00:51:26;13.63;;;8.40;;
78312;SDS011;67568;47.438;21.408;2023-05-07T00:53:54;12.65;;;7.75;;
78312;SDS011;67568;47.438;21.408;2023-05-07T00:56:21;12.47;;;7.87;;
78312;SDS011;67568;47.438;21.408;2023-05-07T00:58:48;13.70;;;8.00;;
78312;SDS011;67568;47.438;21.408;2023-05-07T01:01:15;13.38;;;8.43;;
78312;SDS011;67568;47.438;21.408;2023-05-07T01:03:42;13.05;;;7.72;;
78312;SDS011;67568;47.438;21.408;2023-05-07T01:06:09;12.63;;;8.10;;
78312;SDS011;67568;47.438;21.408;2023-05-07T01:08:38;12.03;;;7.80;;
78312;SDS011;67568;47.438;21.408;2023-05-07T01:11:07;12.65;;;7.45;;
78312;SDS011;67568;47.438;21.408;2023-05-07T01:13:35;13.23;;;7.80;;
78312;SDS011;67568;47.438;21.408;2023-05-07T01:16:05;12.95;;;7.53;;
78312;SDS011;67568;47.438;21.408;2023-05-07T01:18:34;12.23;;;7.40;;
78312;SDS011;67568;47.438;21.408;2023-05-07T01:21:01;14.67;;;7.20;;
78312;SDS011;67568;47.438;21.408;2023-05-07T01:23:30;12.82;;;7.80;;
78312;SDS011;67568;47.438;21.408;2023-05-07T01:25:59;12.10;;;7.32;;
78312;SDS011;67568;47.438;21.408;2023-05-07T01:28:26;13.30;;;8.20;;
78312;SDS011;67568;47.438;21.408;2023-05-07T01:30:54;13.82;;;7.93;;
78312;SDS011;67568;47.438;21.408;2023-05-07T01:33:26;12.60;;;7.60;;
78312;SDS011;67568;47.438;21.408;2023-05-07T01:35:57;12.27;;;7.45;;
78312;SDS011;67568;47.438;21.408;2023-05-07T01:38:25;13.82;;;7.93;;
78312;SDS011;67568;47.438;21.408;2023-05-07T01:40:53;14.30;;;7.57;;
78312;SDS011;67568;47.438;21.408;2023-05-07T01:43:21;13.98;;;8.15;;
78312;SDS011;67568;47.438;21.408;2023-05-07T01:45:48;12.40;;;7.37;;
78312;SDS011;67568;47.438;21.408;2023-05-07T01:48:16;12.52;;;7.93;;
78312;SDS011;67568;47.438;21.408;2023-05-07T01:50:44;13.95;;;7.68;;
78312;SDS011;67568;47.438;21.408;2023-05-07T01:53:13;13.43;;;7.60;;
78312;SDS011;67568;47.438;21.408;2023-05-07T01:55:49;12.35;;;8.13;;
78312;SDS011;67568;47.438;21.408;2023-05-07T01:58:16;11.53;;;7.57;;
78312;SDS011;67568;47.438;21.408;2023-05-07T02:00:42;13.38;;;7.38;;
78312;SDS011;67568;47.438;21.408;2023-05-07T02:03:09;10.82;;;7.15;;
78312;SDS011;67568;47.438;21.408;2023-05-07T02:05:36;14.27;;;7.38;;
78312;SDS011;67568;47.438;21.408;2023-05-07T02:08:06;11.35;;;6.68;;
78312;SDS011;67568;47.438;21.408;2023-05-07T02:10:33;16.03;;;8.33;;
78312;SDS011;67568;47.438;21.408;2023-05-07T02:13:00;11.98;;;7.05;;
78312;SDS011;67568;47.438;21.408;2023-05-07T02:15:26;12.55;;;7.40;;
78312;SDS011;67568;47.438;21.408;2023-05-07T02:20:26;11.68;;;7.35;;
78312;SDS011;67568;47.438;21.408;2023-05-07T02:22:53;11.57;;;7.57;;
78312;SDS011;67568;47.438;21.408;2023-05-07T02:25:19;10.90;;;7.07;;
78312;SDS011;67568;47.438;21.408;2023-05-07T02:27:46;12.25;;;6.50;;
78312;SDS011;67568;47.438;21.408;2023-05-07T02:30:16;9.60;;;6.35;;
78312;SDS011;67568;47.438;21.408;2023-05-07T02:32:43;11.48;;;6.63;;
78312;SDS011;67568;47.438;21.408;2023-05-07T02:35:09;12.97;;;7.10;;
78312;SDS011;67568;47.438;21.408;2023-05-07T02:37:38;11.27;;;7.00;;
78312;SDS011;67568;47.438;21.408;2023-05-07T02:40:05;11.27;;;6.75;;
78312;SDS011;67568;47.438;21.408;2023-05-07T02:42:33;10.85;;;7.03;;
78312;SDS011;67568;47.438;21.408;2023-05-07T02:45:00;11.93;;;6.65;;
78312;SDS011;67568;47.438;21.408;2023-05-07T02:47:29;10.33;;;6.60;;
78312;SDS011;67568;47.438;21.408;2023-05-07T02:49:56;10.73;;;6.75;;
78312;SDS011;67568;47.438;21.408;2023-05-07T02:52:22;10.80;;;6.63;;
78312;SDS011;67568;47.438;21.408;2023-05-07T02:54:49;9.95;;;5.70;;
78312;SDS011;67568;47.438;21.408;2023-05-07T02:57:16;13.25;;;7.40;;
78312;SDS011;67568;47.438;21.408;2023-05-07T02:59:42;10.97;;;7.03;;
78312;SDS011;67568;47.438;21.408;2023-05-07T03:02:09;11.35;;;7.28;;
78312;SDS011;67568;47.438;21.408;2023-05-07T03:04:36;10.40;;;7.28;;
78312;SDS011;67568;47.438;21.408;2023-05-07T03:07:03;11.68;;;6.95;;
78312;SDS011;67568;47.438;21.408;2023-05-07T03:09:30;11.52;;;7.00;;
78312;SDS011;67568;47.438;21.408;2023-05-07T03:11:57;10.30;;;6.93;;
78312;SDS011;67568;47.438;21.408;2023-05-07T03:14:27;12.20;;;7.25;;
78312;SDS011;67568;47.438;21.408;2023-05-07T03:16:53;11.48;;;6.63;;
78312;SDS011;67568;47.438;21.408;2023-05-07T03:19:20;12.90;;;6.80;;
78312;SDS011;67568;47.438;21.408;2023-05-07T03:21:47;13.07;;;6.93;;
78312;SDS011;67568;47.438;21.408;2023-05-07T03:24:13;10.73;;;6.60;;
78312;SDS011;67568;47.438;21.408;2023-05-07T03:26:40;12.05;;;6.75;;
78312;SDS011;67568;47.438;21.408;2023-05-07T03:29:07;11.82;;;7.43;;
78312;SDS011;67568;47.438;21.408;2023-05-07T03:31:35;11.05;;;6.88;;
78312;SDS011;67568;47.438;21.408;2023-05-07T03:34:02;12.85;;;6.82;;
78312;SDS011;67568;47.438;21.408;2023-05-07T03:36:30;14.23;;;7.23;;
78312;SDS011;67568;47.438;21.408;2023-05-07T03:39:03;11.25;;;7.20;;
78312;SDS011;67568;47.438;21.408;2023-05-07T03:41:29;14.30;;;7.90;;
78312;SDS011;67568;47.438;21.408;2023-05-07T03:43:59;12.18;;;7.10;;
78312;SDS011;67568;47.438;21.408;2023-05-07T03:46:26;11.82;;;7.20;;
78312;SDS011;67568;47.438;21.408;2023-05-07T03:48:53;13.33;;;7.43;;
78312;SDS011;67568;47.438;21.408;2023-05-07T03:51:20;11.88;;;6.95;;
78312;SDS011;67568;47.438;21.408;2023-05-07T03:53:46;13.15;;;7.40;;
78312;SDS011;67568;47.438;21.408;2023-05-07T03:56:13;16.35;;;7.93;;
78312;SDS011;67568;47.438;21.408;2023-05-07T03:58:39;10.98;;;6.97;;
78312;SDS011;67568;47.438;21.408;2023-05-07T04:01:08;12.17;;;7.37;;
78312;SDS011;67568;47.438;21.408;2023-05-07T04:03:35;11.90;;;6.85;;
78312;SDS011;67568;47.438;21.408;2023-05-07T04:06:05;11.32;;;7.25;;
78312;SDS011;67568;47.438;21.408;2023-05-07T04:08:32;10.88;;;6.63;;
78312;SDS011;67568;47.438;21.408;2023-05-07T04:10:58;12.15;;;7.35;;
78312;SDS011;67568;47.438;21.408;2023-05-07T04:13:26;10.27;;;6.57;;
78312;SDS011;67568;47.438;21.408;2023-05-07T04:15:54;11.48;;;7.00;;
78312;SDS011;67568;47.438;21.408;2023-05-07T04:18:21;10.63;;;6.15;;
78312;SDS011;67568;47.438;21.408;2023-05-07T04:20:48;11.98;;;7.68;;
78312;SDS011;67568;47.438;21.408;2023-05-07T04:23:15;14.13;;;7.53;;
78312;SDS011;67568;47.438;21.408;2023-05-07T04:25:42;10.90;;;6.50;;
78312;SDS011;67568;47.438;21.408;2023-05-07T04:28:09;12.27;;;6.93;;
78312;SDS011;67568;47.438;21.408;2023-05-07T04:30:36;11.52;;;6.88;;
78312;SDS011;67568;47.438;21.408;2023-05-07T04:33:02;10.68;;;6.70;;
78312;SDS011;67568;47.438;21.408;2023-05-07T04:35:29;14.15;;;6.80;;
78312;SDS011;67568;47.438;21.408;2023-05-07T04:37:56;10.63;;;6.70;;
78312;SDS011;67568;47.438;21.408;2023-05-07T04:40:23;13.45;;;7.22;;
78312;SDS011;67568;47.438;21.408;2023-05-07T04:42:50;11.73;;;6.65;;
78312;SDS011;67568;47.438;21.408;2023-05-07T04:45:16;10.93;;;6.47;;
78312;SDS011;67568;47.438;21.408;2023-05-07T04:47:43;11.77;;;7.45;;
78312;SDS011;67568;47.438;21.408;2023-05-07T04:50:10;13.90;;;6.43;;
78312;SDS011;67568;47.438;21.408;2023-05-07T04:52:37;11.95;;;7.07;;
78312;SDS011;67568;47.438;21.408;2023-05-07T04:55:04;10.63;;;6.88;;
78312;SDS011;67568;47.438;21.408;2023-05-07T04:57:31;13.43;;;7.43;;
78312;SDS011;67568;47.438;21.408;2023-05-07T04:59:57;12.02;;;7.13;;
78312;SDS011;67568;47.438;21.408;2023-05-07T05:02:24;12.60;;;7.30;;
78312;SDS011;67568;47.438;21.408;2023-05-07T05:04:54;10.50;;;7.15;;
78312;SDS011;67568;47.438;21.408;2023-05-07T05:07:20;12.30;;;7.40;;
78312;SDS011;67568;47.438;21.408;2023-05-07T05:09:50;12.45;;;6.80;;
78312;SDS011;67568;47.438;21.408;2023-05-07T05:12:17;9.63;;;6.20;;
78312;SDS011;67568;47.438;21.408;2023-05-07T05:14:44;10.03;;;6.57;;
78312;SDS011;67568;47.438;21.408;2023-05-07T05:17:10;12.13;;;6.40;;
78312;SDS011;67568;47.438;21.408;2023-05-07T05:19:37;11.55;;;6.40;;
78312;SDS011;67568;47.438;21.408;2023-05-07T05:22:07;10.70;;;5.40;;
78312;SDS011;67568;47.438;21.408;2023-05-07T05:24:36;10.23;;;4.85;;
78312;SDS011;67568;47.438;21.408;2023-05-07T05:27:02;12.67;;;4.67;;
78312;SDS011;67568;47.438;21.408;2023-05-07T05:29:29;9.73;;;5.03;;
78312;SDS011;67568;47.438;21.408;2023-05-07T05:31:56;10.07;;;5.22;;
78312;SDS011;67568;47.438;21.408;2023-05-07T05:34:24;10.30;;;5.20;;
78312;SDS011;67568;47.438;21.408;2023-05-07T05:36:51;8.50;;;4.75;;
78312;SDS011;67568;47.438;21.408;2023-05-07T05:39:18;9.73;;;4.87;;
78312;SDS011;67568;47.438;21.408;2023-05-07T05:41:45;8.88;;;4.57;;
78312;SDS011;67568;47.438;21.408;2023-05-07T05:44:12;8.73;;;4.80;;
78312;SDS011;67568;47.438;21.408;2023-05-07T05:46:44;8.30;;;4.75;;
78312;SDS011;67568;47.438;21.408;2023-05-07T05:49:11;9.07;;;4.45;;
78312;SDS011;67568;47.438;21.408;2023-05-07T05:51:38;9.40;;;4.63;;
78312;SDS011;67568;47.438;21.408;2023-05-07T05:54:05;9.65;;;4.63;;
78312;SDS011;67568;47.438;21.408;2023-05-07T05:56:31;10.30;;;4.85;;
78312;SDS011;67568;47.438;21.408;2023-05-07T05:59:01;11.38;;;5.00;;
78312;SDS011;67568;47.438;21.408;2023-05-07T06:01:28;8.35;;;4.32;;
78312;SDS011;67568;47.438;21.408;2023-05-07T06:03:55;9.70;;;4.63;;
78312;SDS011;67568;47.438;21.408;2023-05-07T06:06:22;9.15;;;4.50;;
78312;SDS011;67568;47.438;21.408;2023-05-07T06:08:49;9.88;;;4.93;;
78312;SDS011;67568;47.438;21.408;2023-05-07T06:11:16;8.48;;;4.57;;
78312;SDS011;67568;47.438;21.408;2023-05-07T06:13:42;11.10;;;4.95;;
78312;SDS011;67568;47.438;21.408;2023-05-07T06:16:11;10.10;;;4.70;;
78312;SDS011;67568;47.438;21.408;2023-05-07T06:18:38;8.93;;;4.50;;
78312;SDS011;67568;47.438;21.408;2023-05-07T06:21:05;9.98;;;4.78;;
78312;SDS011;67568;47.438;21.408;2023-05-07T06:23:42;10.00;;;5.55;;
78312;SDS011;67568;47.438;21.408;2023-05-07T06:26:08;10.05;;;5.25;;
78312;SDS011;67568;47.438;21.408;2023-05-07T06:28:35;9.10;;;5.00;;
78312;SDS011;67568;47.438;21.408;2023-05-07T06:31:15;9.05;;;4.93;;
78312;SDS011;67568;47.438;21.408;2023-05-07T06:33:43;16.08;;;5.72;;
78312;SDS011;67568;47.438;21.408;2023-05-07T06:36:13;10.30;;;5.47;;
78312;SDS011;67568;47.438;21.408;2023-05-07T06:38:40;11.20;;;6.00;;
78312;SDS011;67568;47.438;21.408;2023-05-07T06:41:06;11.87;;;5.83;;
78312;SDS011;67568;47.438;21.408;2023-05-07T06:43:33;12.32;;;6.05;;
78312;SDS011;67568;47.438;21.408;2023-05-07T06:46:03;11.38;;;6.03;;
78312;SDS011;67568;47.438;21.408;2023-05-07T06:48:30;10.70;;;5.53;;
78312;SDS011;67568;47.438;21.408;2023-05-07T06:50:57;11.65;;;6.30;;
78312;SDS011;67568;47.438;21.408;2023-05-07T06:53:24;8.97;;;5.57;;
78312;SDS011;67568;47.438;21.408;2023-05-07T06:55:50;12.15;;;6.18;;
78312;SDS011;67568;47.438;21.408;2023-05-07T06:58:17;10.63;;;5.97;;
78312;SDS011;67568;47.438;21.408;2023-05-07T07:00:44;10.07;;;5.80;;
78312;SDS011;67568;47.438;21.408;2023-05-07T07:03:10;10.05;;;5.60;;
78312;SDS011;67568;47.438;21.408;2023-05-07T07:05:37;11.60;;;5.90;;
78312;SDS011;67568;47.438;21.408;2023-05-07T07:08:04;10.35;;;5.65;;
78312;SDS011;67568;47.438;21.408;2023-05-07T07:10:31;11.90;;;6.28;;
78312;SDS011;67568;47.438;21.408;2023-05-07T07:12:58;9.85;;;6.05;;
78312;SDS011;67568;47.438;21.408;2023-05-07T07:15:26;10.75;;;5.95;;
78312;SDS011;67568;47.438;21.408;2023-05-07T07:17:54;11.80;;;6.00;;
78312;SDS011;67568;47.438;21.408;2023-05-07T07:20:21;10.25;;;5.88;;
78312;SDS011;67568;47.438;21.408;2023-05-07T07:22:50;10.13;;;5.70;;
78312;SDS011;67568;47.438;21.408;2023-05-07T07:25:17;9.52;;;5.82;;
78312;SDS011;67568;47.438;21.408;2023-05-07T07:27:46;11.50;;;6.00;;
78312;SDS011;67568;47.438;21.408;2023-05-07T07:30:13;9.90;;;6.10;;
78312;SDS011;67568;47.438;21.408;2023-05-07T07:32:39;11.20;;;6.63;;
78312;SDS011;67568;47.438;21.408;2023-05-07T07:35:06;14.43;;;6.30;;
78312;SDS011;67568;47.438;21.408;2023-05-07T07:37:36;10.50;;;6.55;;
78312;SDS011;67568;47.438;21.408;2023-05-07T07:40:03;10.07;;;5.45;;
78312;SDS011;67568;47.438;21.408;2023-05-07T07:42:34;13.03;;;5.90;;
78312;SDS011;67568;47.438;21.408;2023-05-07T07:45:02;9.35;;;5.63;;
78312;SDS011;67568;47.438;21.408;2023-05-07T07:47:29;13.70;;;5.85;;
78312;SDS011;67568;47.438;21.408;2023-05-07T07:49:55;9.63;;;5.25;;
78312;SDS011;67568;47.438;21.408;2023-05-07T07:52:22;8.60;;;4.82;;
78312;SDS011;67568;47.438;21.408;2023-05-07T07:54:49;9.33;;;4.77;;
78312;SDS011;67568;47.438;21.408;2023-05-07T07:57:16;8.73;;;5.10;;
78312;SDS011;67568;47.438;21.408;2023-05-07T07:59:42;11.38;;;5.15;;
78312;SDS011;67568;47.438;21.408;2023-05-07T08:02:09;10.68;;;5.68;;
78312;SDS011;67568;47.438;21.408;2023-05-07T08:04:36;9.73;;;4.60;;
78312;SDS011;67568;47.438;21.408;2023-05-07T08:07:03;9.00;;;4.80;;
78312;SDS011;67568;47.438;21.408;2023-05-07T08:09:35;9.48;;;4.90;;
78312;SDS011;67568;47.438;21.408;2023-05-07T08:12:01;8.65;;;5.18;;
78312;SDS011;67568;47.438;21.408;2023-05-07T08:14:28;8.35;;;4.22;;
78312;SDS011;67568;47.438;21.408;2023-05-07T08:16:55;8.13;;;3.92;;
78312;SDS011;67568;47.438;21.408;2023-05-07T08:19:22;9.10;;;3.40;;
78312;SDS011;67568;47.438;21.408;2023-05-07T08:21:49;9.43;;;4.00;;
78312;SDS011;67568;47.438;21.408;2023-05-07T08:24:16;7.53;;;3.20;;
78312;SDS011;67568;47.438;21.408;2023-05-07T08:26:44;8.15;;;3.30;;
78312;SDS011;67568;47.438;21.408;2023-05-07T08:29:13;8.77;;;3.33;;
78312;SDS011;67568;47.438;21.408;2023-05-07T08:31:40;10.13;;;3.50;;
78312;SDS011;67568;47.438;21.408;2023-05-07T08:34:07;8.40;;;3.25;;
78312;SDS011;67568;47.438;21.408;2023-05-07T08:36:35;8.13;;;3.13;;
78312;SDS011;67568;47.438;21.408;2023-05-07T08:39:02;10.65;;;3.20;;
78312;SDS011;67568;47.438;21.408;2023-05-07T08:41:29;9.35;;;3.40;;
78312;SDS011;67568;47.438;21.408;2023-05-07T08:43:56;9.00;;;2.80;;
78312;SDS011;67568;47.438;21.408;2023-05-07T08:46:25;6.80;;;2.92;;
78312;SDS011;67568;47.438;21.408;2023-05-07T08:48:55;6.97;;;2.60;;
78312;SDS011;67568;47.438;21.408;2023-05-07T08:51:21;6.85;;;3.10;;
78312;SDS011;67568;47.438;21.408;2023-05-07T08:53:49;8.63;;;3.50;;
78312;SDS011;67568;47.438;21.408;2023-05-07T08:56:16;7.90;;;3.50;;
78312;SDS011;67568;47.438;21.408;2023-05-07T08:58:45;7.75;;;3.40;;
78312;SDS011;67568;47.438;21.408;2023-05-07T09:01:15;7.30;;;3.10;;
78312;SDS011;67568;47.438;21.408;2023-05-07T09:03:46;8.23;;;3.58;;
78312;SDS011;67568;47.438;21.408;2023-05-07T09:06:13;7.85;;;3.22;;
78312;SDS011;67568;47.438;21.408;2023-05-07T09:08:43;8.87;;;3.30;;
78312;SDS011;67568;47.438;21.408;2023-05-07T09:11:15;8.93;;;3.25;;
78312;SDS011;67568;47.438;21.408;2023-05-07T09:13:42;7.10;;;2.90;;
78312;SDS011;67568;47.438;21.408;2023-05-07T09:16:10;7.75;;;3.05;;
78312;SDS011;67568;47.438;21.408;2023-05-07T09:18:43;13.27;;;3.42;;
78312;SDS011;67568;47.438;21.408;2023-05-07T09:21:11;10.03;;;3.37;;
78312;SDS011;67568;47.438;21.408;2023-05-07T09:23:42;7.80;;;3.13;;
78312;SDS011;67568;47.438;21.408;2023-05-07T09:26:09;9.98;;;3.72;;
78312;SDS011;67568;47.438;21.408;2023-05-07T09:28:39;7.00;;;3.10;;
78312;SDS011;67568;47.438;21.408;2023-05-07T09:31:07;8.40;;;3.53;;
78312;SDS011;67568;47.438;21.408;2023-05-07T09:33:34;6.60;;;3.20;;
78312;SDS011;67568;47.438;21.408;2023-05-07T09:36:04;8.77;;;3.65;;
78312;SDS011;67568;47.438;21.408;2023-05-07T09:38:36;8.45;;;3.38;;
78312;SDS011;67568;47.438;21.408;2023-05-07T09:41:06;6.57;;;3.15;;
78312;SDS011;67568;47.438;21.408;2023-05-07T09:43:34;12.15;;;3.80;;
78312;SDS011;67568;47.438;21.408;2023-05-07T09:46:49;9.37;;;3.17;;
78312;SDS011;67568;47.438;21.408;2023-05-07T09:48:53;7.72;;;3.30;;
78312;SDS011;67568;47.438;21.408;2023-05-07T09:53:50;7.35;;;3.50;;
78312;SDS011;67568;47.438;21.408;2023-05-07T09:56:21;7.70;;;3.63;;
78312;SDS011;67568;47.438;21.408;2023-05-07T09:58:49;7.37;;;3.37;;
78312;SDS011;67568;47.438;21.408;2023-05-07T10:01:21;11.55;;;3.20;;
78312;SDS011;67568;47.438;21.408;2023-05-07T10:03:53;7.63;;;3.10;;
78312;SDS011;67568;47.438;21.408;2023-05-07T10:06:21;8.48;;;3.20;;
78312;SDS011;67568;47.438;21.408;2023-05-07T10:08:49;9.13;;;3.33;;
78312;SDS011;67568;47.438;21.408;2023-05-07T10:11:17;7.20;;;3.27;;
78312;SDS011;67568;47.438;21.408;2023-05-07T10:13:44;7.07;;;3.10;;
78312;SDS011;67568;47.438;21.408;2023-05-07T10:16:12;7.68;;;3.60;;
78312;SDS011;67568;47.438;21.408;2023-05-07T10:18:41;6.90;;;3.35;;
78312;SDS011;67568;47.438;21.408;2023-05-07T10:23:50;7.33;;;2.80;;
78312;SDS011;67568;47.438;21.408;2023-05-07T10:26:22;6.55;;;3.13;;
78312;SDS011;67568;47.438;21.408;2023-05-07T10:28:53;7.25;;;3.30;;
78312;SDS011;67568;47.438;21.408;2023-05-07T10:33:59;7.53;;;3.40;;
78312;SDS011;67568;47.438;21.408;2023-05-07T10:36:27;8.03;;;3.10;;
78312;SDS011;67568;47.438;21.408;2023-05-07T10:38:54;7.28;;;2.88;;
78312;SDS011;67568;47.438;21.408;2023-05-07T10:41:21;8.27;;;3.60;;
78312;SDS011;67568;47.438;21.408;2023-05-07T10:43:48;10.95;;;2.95;;
78312;SDS011;67568;47.438;21.408;2023-05-07T10:46:21;8.40;;;3.10;;
78312;SDS011;67568;47.438;21.408;2023-05-07T10:51:28;6.72;;;3.30;;
78312;SDS011;67568;47.438;21.408;2023-05-07T10:56:37;10.02;;;3.22;;
78312;SDS011;67568;47.438;21.408;2023-05-07T11:02:04;7.27;;;3.10;;
78312;SDS011;67568;47.438;21.408;2023-05-07T11:04:32;8.30;;;3.20;;
78312;SDS011;67568;47.438;21.408;2023-05-07T11:17:53;8.05;;;3.55;;
78312;SDS011;67568;47.438;21.408;2023-05-07T11:20:43;7.80;;;2.85;;
78312;SDS011;67568;47.438;21.408;2023-05-07T11:28:41;7.33;;;3.13;;
78312;SDS011;67568;47.438;21.408;2023-05-07T11:31:09;7.40;;;3.13;;
78312;SDS011;67568;47.438;21.408;2023-05-07T11:33:37;8.43;;;2.85;;
78312;SDS011;67568;47.438;21.408;2023-05-07T11:36:05;7.72;;;3.20;;
78312;SDS011;67568;47.438;21.408;2023-05-07T11:38:37;7.13;;;3.38;;
78312;SDS011;67568;47.438;21.408;2023-05-07T11:41:04;6.80;;;3.37;;
78312;SDS011;67568;47.438;21.408;2023-05-07T11:43:31;7.95;;;3.38;;
78312;SDS011;67568;47.438;21.408;2023-05-07T11:46:06;6.57;;;2.75;;
78312;SDS011;67568;47.438;21.408;2023-05-07T11:48:34;7.57;;;3.25;;
78312;SDS011;67568;47.438;21.408;2023-05-07T11:51:02;6.38;;;3.20;;
78312;SDS011;67568;47.438;21.408;2023-05-07T11:53:40;6.13;;;3.10;;
78312;SDS011;67568;47.438;21.408;2023-05-07T11:56:08;7.47;;;3.10;;
78312;SDS011;67568;47.438;21.408;2023-05-07T11:58:36;7.97;;;3.25;;
78312;SDS011;67568;47.438;21.408;2023-05-07T12:01:03;6.60;;;3.20;;
78312;SDS011;67568;47.438;21.408;2023-05-07T12:03:33;6.25;;;3.20;;
78312;SDS011;67568;47.438;21.408;2023-05-07T12:06:01;6.20;;;3.03;;
78312;SDS011;67568;47.438;21.408;2023-05-07T12:08:28;7.00;;;2.90;;
78312;SDS011;67568;47.438;21.408;2023-05-07T12:10:56;7.13;;;3.17;;
78312;SDS011;67568;47.438;21.408;2023-05-07T12:13:26;7.63;;;3.13;;
78312;SDS011;67568;47.438;21.408;2023-05-07T12:15:53;7.30;;;3.10;;
78312;SDS011;67568;47.438;21.408;2023-05-07T12:18:22;9.93;;;3.23;;
78312;SDS011;67568;47.438;21.408;2023-05-07T12:20:49;6.65;;;3.00;;
78312;SDS011;67568;47.438;21.408;2023-05-07T12:23:18;6.95;;;3.10;;
78312;SDS011;67568;47.438;21.408;2023-05-07T12:25:46;7.40;;;3.10;;
78312;SDS011;67568;47.438;21.408;2023-05-07T12:28:15;7.35;;;3.00;;
78312;SDS011;67568;47.438;21.408;2023-05-07T12:30:46;7.23;;;3.30;;
78312;SDS011;67568;47.438;21.408;2023-05-07T12:33:18;8.75;;;2.88;;
78312;SDS011;67568;47.438;21.408;2023-05-07T12:35:45;7.10;;;3.00;;
78312;SDS011;67568;47.438;21.408;2023-05-07T12:38:15;5.20;;;2.60;;
78312;SDS011;67568;47.438;21.408;2023-05-07T12:40:47;6.25;;;3.00;;
78312;SDS011;67568;47.438;21.408;2023-05-07T12:43:21;6.83;;;2.50;;
78312;SDS011;67568;47.438;21.408;2023-05-07T12:45:57;6.72;;;2.90;;
78312;SDS011;67568;47.438;21.408;2023-05-07T12:48:27;5.63;;;2.80;;
78312;SDS011;67568;47.438;21.408;2023-05-07T12:50:54;7.55;;;3.15;;
78312;SDS011;67568;47.438;21.408;2023-05-07T12:53:26;6.10;;;3.30;;
78312;SDS011;67568;47.438;21.408;2023-05-07T12:55:55;6.50;;;3.03;;
78312;SDS011;67568;47.438;21.408;2023-05-07T12:58:25;6.97;;;3.70;;
78312;SDS011;67568;47.438;21.408;2023-05-07T13:01:01;9.32;;;3.42;;
78312;SDS011;67568;47.438;21.408;2023-05-07T13:03:35;8.75;;;4.25;;
78312;SDS011;67568;47.438;21.408;2023-05-07T13:06:08;9.30;;;3.90;;
78312;SDS011;67568;47.438;21.408;2023-05-07T13:08:37;8.03;;;3.90;;
78312;SDS011;67568;47.438;21.408;2023-05-07T13:11:13;8.65;;;3.90;;
78312;SDS011;67568;47.438;21.408;2023-05-07T13:13:40;8.77;;;4.07;;
78312;SDS011;67568;47.438;21.408;2023-05-07T13:16:09;7.55;;;3.40;;
78312;SDS011;67568;47.438;21.408;2023-05-07T13:18:38;7.35;;;3.50;;
78312;SDS011;67568;47.438;21.408;2023-05-07T13:21:06;10.33;;;3.20;;
78312;SDS011;67568;47.438;21.408;2023-05-07T13:23:33;6.55;;;2.60;;
78312;SDS011;67568;47.438;21.408;2023-05-07T13:26:00;7.05;;;2.50;;
78312;SDS011;67568;47.438;21.408;2023-05-07T13:28:36;5.43;;;1.85;;
78312;SDS011;67568;47.438;21.408;2023-05-07T13:31:03;3.63;;;1.30;;
78312;SDS011;67568;47.438;21.408;2023-05-07T13:33:30;4.10;;;1.20;;
78312;SDS011;67568;47.438;21.408;2023-05-07T13:35:56;3.97;;;1.88;;
78312;SDS011;67568;47.438;21.408;2023-05-07T13:38:23;4.28;;;1.80;;
78312;SDS011;67568;47.438;21.408;2023-05-07T13:40:54;5.35;;;2.03;;
78312;SDS011;67568;47.438;21.408;2023-05-07T13:43:20;3.83;;;1.70;;
78312;SDS011;67568;47.438;21.408;2023-05-07T13:45:53;3.97;;;1.60;;
78312;SDS011;67568;47.438;21.408;2023-05-07T13:48:19;3.25;;;1.40;;
78312;SDS011;67568;47.438;21.408;2023-05-07T13:50:46;3.08;;;1.40;;
78312;SDS011;67568;47.438;21.408;2023-05-07T13:53:13;3.97;;;1.50;;
78312;SDS011;67568;47.438;21.408;2023-05-07T13:55:40;3.67;;;1.50;;
78312;SDS011;67568;47.438;21.408;2023-05-07T13:58:06;2.40;;;1.27;;
78312;SDS011;67568;47.438;21.408;2023-05-07T14:00:36;2.85;;;1.30;;
78312;SDS011;67568;47.438;21.408;2023-05-07T14:03:04;3.30;;;1.38;;
78312;SDS011;67568;47.438;21.408;2023-05-07T14:05:31;3.30;;;1.30;;
78312;SDS011;67568;47.438;21.408;2023-05-07T14:07:58;2.40;;;1.15;;
78312;SDS011;67568;47.438;21.408;2023-05-07T14:10:26;1.97;;;0.90;;
78312;SDS011;67568;47.438;21.408;2023-05-07T14:12:52;2.83;;;1.08;;
78312;SDS011;67568;47.438;21.408;2023-05-07T14:15:19;2.40;;;0.80;;
78312;SDS011;67568;47.438;21.408;2023-05-07T14:17:46;1.60;;;0.65;;
78312;SDS011;67568;47.438;21.408;2023-05-07T14:20:13;2.38;;;0.77;;
78312;SDS011;67568;47.438;21.408;2023-05-07T14:22:40;2.97;;;1.20;;
78312;SDS011;67568;47.438;21.408;2023-05-07T14:25:07;2.45;;;0.90;;
78312;SDS011;67568;47.438;21.408;2023-05-07T14:27:34;2.30;;;1.00;;
78312;SDS011;67568;47.438;21.408;2023-05-07T14:30:01;3.35;;;1.10;;
78312;SDS011;67568;47.438;21.408;2023-05-07T14:32:28;4.32;;;1.10;;
78312;SDS011;67568;47.438;21.408;2023-05-07T14:34:54;3.17;;;1.30;;
78312;SDS011;67568;47.438;21.408;2023-05-07T14:37:21;3.38;;;1.10;;
78312;SDS011;67568;47.438;21.408;2023-05-07T14:39:48;2.92;;;1.02;;
78312;SDS011;67568;47.438;21.408;2023-05-07T14:42:16;3.03;;;1.05;;
78312;SDS011;67568;47.438;21.408;2023-05-07T14:44:47;4.20;;;1.50;;
78312;SDS011;67568;47.438;21.408;2023-05-07T14:47:14;2.27;;;1.07;;
78312;SDS011;67568;47.438;21.408;2023-05-07T14:49:43;2.83;;;1.20;;
78312;SDS011;67568;47.438;21.408;2023-05-07T14:52:13;3.95;;;1.50;;
78312;SDS011;67568;47.438;21.408;2023-05-07T14:54:40;6.03;;;2.00;;
78312;SDS011;67568;47.438;21.408;2023-05-07T14:57:11;4.03;;;1.75;;
78312;SDS011;67568;47.438;21.408;2023-05-07T14:59:41;6.63;;;2.47;;
78312;SDS011;67568;47.438;21.408;2023-05-07T15:02:09;5.85;;;1.92;;
78312;SDS011;67568;47.438;21.408;2023-05-07T15:04:37;7.03;;;1.83;;
78312;SDS011;67568;47.438;21.408;2023-05-07T15:07:04;4.18;;;1.85;;
78312;SDS011;67568;47.438;21.408;2023-05-07T15:09:31;5.82;;;1.70;;